createdAt,value
2019-03-21T00:02:03.117Z,79.10
2019-03-21T00:04:31.513Z,79.20
2019-03-21T00:06:59.908Z,79.40
2019-03-21T00:09:28.317Z,79.50
2019-03-21T00:12:01.944Z,79.60
2019-03-21T00:14:48.498Z,79.70
2019-03-21T00:17:34.852Z,79.80
2019-03-21T00:20:05.471Z,80.00
2019-03-21T00:22:33.869Z,80.20
2019-03-21T00:25:02.273Z,79.80
2019-03-21T00:27:30.673Z,79.60
2019-03-21T00:29:59.150Z,79.50
2019-03-21T00:32:27.586Z,79.10
2019-03-21T00:37:24.064Z,79.60
2019-03-21T00:39:52.996Z,79.50
2019-03-21T00:42:21.392Z,79.50
2019-03-21T00:44:49.811Z,79.60
2019-03-21T00:47:18.220Z,79.70
2019-03-21T00:49:46.620Z,79.90
2019-03-21T00:52:15.022Z,80.00
2019-03-21T00:57:11.583Z,80.20
2019-03-21T00:59:39.985Z,80.30
2019-03-21T01:02:08.424Z,80.30
2019-03-21T01:04:36.835Z,80.40
2019-03-21T01:07:06.443Z,80.50
2019-03-21T01:09:35.047Z,80.40
2019-03-21T01:12:03.432Z,80.50
2019-03-21T01:14:31.839Z,80.50
2019-03-21T01:17:00.320Z,80.50
2019-03-21T01:19:28.742Z,80.60
2019-03-21T01:21:57.129Z,80.50
2019-03-21T01:24:25.549Z,80.30
2019-03-21T01:29:22.160Z,80.10
2019-03-21T01:31:50.570Z,80.20
2019-03-21T01:34:18.966Z,80.30
2019-03-21T01:36:47.441Z,80.40
2019-03-21T01:39:15.849Z,80.60
2019-03-21T01:41:44.252Z,80.80
2019-03-21T01:44:12.714Z,80.90
2019-03-21T01:46:41.172Z,81.00
2019-03-21T01:49:09.576Z,81.10
2019-03-21T01:51:38.000Z,81.10
2019-03-21T01:54:06.393Z,81.30
2019-03-21T01:56:34.869Z,81.60
2019-03-21T01:59:03.401Z,81.60
2019-03-21T02:01:31.868Z,81.40
2019-03-21T02:06:28.376Z,82.10
2019-03-21T02:08:56.834Z,82.40
2019-03-21T02:11:25.236Z,82.50
2019-03-21T02:13:53.642Z,82.10
2019-03-21T02:16:22.068Z,82.10
2019-03-21T02:18:50.480Z,82.30
2019-03-21T02:21:18.890Z,82.90
2019-03-21T02:23:47.293Z,83.00
2019-03-21T02:26:15.700Z,82.90
2019-03-21T02:28:44.102Z,82.80
2019-03-21T02:31:12.525Z,82.40
2019-03-21T02:33:44.980Z,82.10
2019-03-21T02:36:14.355Z,81.90
2019-03-21T02:41:14.045Z,82.10
2019-03-21T02:43:42.456Z,82.60
2019-03-21T02:46:10.858Z,82.90
2019-03-21T02:48:39.256Z,82.80
2019-03-21T02:51:08.266Z,82.90
2019-03-21T02:53:36.727Z,82.50
2019-03-21T02:56:09.023Z,82.40
2019-03-21T02:58:37.489Z,82.10
2019-03-21T03:03:34.056Z,82.30
2019-03-21T03:06:02.468Z,82.40
2019-03-21T03:08:30.876Z,82.40
2019-03-21T03:11:10.789Z,82.30
2019-03-21T03:13:38.926Z,82.50
2019-03-21T03:16:07.397Z,82.10
2019-03-21T03:18:35.797Z,81.90
2019-03-21T03:21:04.196Z,82.40
2019-03-21T03:26:00.689Z,82.00
2019-03-21T03:28:34.373Z,81.90
2019-03-21T03:31:02.765Z,82.90
2019-03-21T03:33:31.256Z,83.80
2019-03-21T03:35:59.644Z,84.10
2019-03-21T03:38:28.068Z,84.30
2019-03-21T03:40:59.406Z,84.20
2019-03-21T03:43:27.844Z,84.30
2019-03-21T03:45:56.319Z,84.50
2019-03-21T03:48:25.839Z,84.40
2019-03-21T03:53:22.428Z,84.60
2019-03-21T03:55:50.878Z,84.50
2019-03-21T03:58:29.522Z,83.90
2019-03-21T04:00:57.981Z,83.90
2019-03-21T04:03:28.033Z,83.40
2019-03-21T04:05:56.573Z,83.10
2019-03-21T04:08:25.055Z,83.10
2019-03-21T04:10:59.178Z,83.10
2019-03-21T04:15:55.650Z,82.90
2019-03-21T04:18:25.412Z,82.80
2019-03-21T04:20:59.629Z,82.40
2019-03-21T04:26:02.189Z,82.30
2019-03-21T04:28:30.742Z,82.30
2019-03-21T04:30:59.135Z,82.30
2019-03-21T04:33:27.551Z,82.40
2019-03-21T04:35:55.948Z,82.50
2019-03-21T04:38:24.433Z,82.70
2019-03-21T04:40:52.831Z,82.80
2019-03-21T04:45:49.789Z,82.80
2019-03-21T04:48:18.200Z,82.80
2019-03-21T04:50:46.599Z,82.80
2019-03-21T04:53:15.013Z,82.80
2019-03-21T04:55:43.546Z,82.90
2019-03-21T04:58:11.952Z,82.90
2019-03-21T05:00:51.876Z,82.90
2019-03-21T05:03:25.281Z,82.90
2019-03-21T05:05:53.682Z,83.00
2019-03-21T05:08:22.101Z,82.90
2019-03-21T05:13:18.645Z,83.10
2019-03-21T05:15:54.386Z,83.20
2019-03-21T05:18:31.912Z,83.40
2019-03-21T05:23:29.256Z,83.10
2019-03-21T05:25:57.656Z,83.10
2019-03-21T05:28:26.059Z,83.00
2019-03-21T05:31:09.417Z,83.20
2019-03-21T05:33:37.822Z,83.00
2019-03-21T05:36:06.229Z,83.20
2019-03-21T05:38:34.635Z,83.20
2019-03-21T05:41:03.054Z,83.20
2019-03-21T05:43:46.756Z,83.70
2019-03-21T05:48:45.134Z,84.30
2019-03-21T05:56:09.677Z,84.60
2019-03-21T05:58:38.091Z,84.80
2019-03-21T06:01:09.401Z,84.80
2019-03-21T06:03:50.950Z,84.80
2019-03-21T06:06:22.432Z,84.40
2019-03-21T06:08:50.844Z,84.50
2019-03-21T06:11:19.247Z,84.80
2019-03-21T06:13:47.644Z,85.20
2019-03-21T06:16:16.042Z,85.20
2019-03-21T06:19:05.310Z,85.30
2019-03-21T06:21:39.533Z,85.20
2019-03-21T06:24:16.803Z,85.30
2019-03-21T06:27:13.690Z,85.20
2019-03-21T06:29:33.448Z,85.20
2019-03-21T06:32:01.856Z,85.40
2019-03-21T06:34:30.265Z,85.60
2019-03-21T06:36:58.688Z,85.80
2019-03-21T06:39:27.099Z,85.50
2019-03-21T06:41:55.504Z,83.80
2019-03-21T06:44:23.913Z,81.80
2019-03-21T06:46:52.313Z,80.00
2019-03-21T06:51:48.870Z,77.20
2019-03-21T06:56:45.345Z,76.00
2019-03-21T06:59:13.756Z,74.80
2019-03-21T07:01:42.148Z,74.90
2019-03-21T07:04:29.889Z,75.30
2019-03-21T07:07:07.486Z,74.90
2019-03-21T07:09:29.286Z,75.30
2019-03-21T07:11:58.012Z,75.30
2019-03-21T07:14:26.418Z,75.20
2019-03-21T07:17:00.274Z,73.90
2019-03-21T07:19:24.956Z,73.80
2019-03-21T07:21:53.352Z,73.10
2019-03-21T07:24:21.780Z,72.00
2019-03-21T07:26:50.176Z,72.30
2019-03-21T07:29:18.589Z,71.40
2019-03-21T07:31:46.985Z,70.20
2019-03-21T07:34:15.405Z,69.80
2019-03-21T07:36:43.804Z,70.20
2019-03-21T07:39:12.192Z,71.30
2019-03-21T07:41:40.598Z,70.30
2019-03-21T07:44:08.997Z,69.60
2019-03-21T07:49:05.504Z,69.00
2019-03-21T07:51:33.908Z,69.10
2019-03-21T07:56:50.383Z,68.20
2019-03-21T08:04:14.933Z,69.20
2019-03-21T08:06:43.383Z,68.30
2019-03-21T08:11:39.861Z,68.60
2019-03-21T08:14:08.251Z,66.20
2019-03-21T08:16:36.656Z,67.70
2019-03-21T08:19:05.070Z,65.50
2019-03-21T08:24:01.556Z,65.10
2019-03-21T08:26:29.956Z,66.20
2019-03-21T08:28:59.885Z,66.10
2019-03-21T08:31:28.288Z,64.10
2019-03-21T08:33:56.684Z,63.70
2019-03-21T08:36:25.088Z,63.40
2019-03-21T08:38:53.488Z,64.00
2019-03-21T08:41:21.893Z,61.90
2019-03-21T08:43:50.301Z,63.00
2019-03-21T08:46:18.704Z,63.30
2019-03-21T08:48:47.109Z,62.40
2019-03-21T08:51:15.516Z,62.70
2019-03-21T08:56:12.069Z,62.80
2019-03-21T08:58:40.457Z,63.50
2019-03-21T09:01:08.871Z,61.40
2019-03-21T09:03:37.273Z,62.40
2019-03-21T09:06:05.677Z,62.80
2019-03-21T09:08:34.084Z,62.70
2019-03-21T09:11:02.496Z,61.60
2019-03-21T09:13:30.892Z,63.40
2019-03-21T09:15:59.298Z,61.40
2019-03-21T09:18:27.692Z,62.90
2019-03-21T09:20:56.117Z,61.40
2019-03-21T09:23:24.520Z,61.70
2019-03-21T09:25:52.924Z,60.80
2019-03-21T09:28:21.318Z,61.70
2019-03-21T09:33:19.277Z,61.00
2019-03-21T09:35:47.688Z,60.30
2019-03-21T09:38:16.079Z,60.80
2019-03-21T09:40:46.065Z,60.00
2019-03-21T09:43:14.476Z,62.70
2019-03-21T09:45:42.877Z,60.10
2019-03-21T09:48:11.278Z,59.50
2019-03-21T09:50:39.696Z,60.60
2019-03-21T09:53:08.103Z,60.00
2019-03-21T09:55:36.516Z,59.10
2019-03-21T09:58:04.910Z,58.60
2019-03-21T10:00:36.925Z,58.30
2019-03-21T10:03:06.168Z,59.60
2019-03-21T10:05:34.567Z,60.30
2019-03-21T10:08:03.421Z,57.70
2019-03-21T10:10:33.459Z,57.60
2019-03-21T10:13:01.942Z,58.50
2019-03-21T10:15:30.397Z,57.40
2019-03-21T10:17:58.813Z,56.60
2019-03-21T10:20:27.210Z,55.80
2019-03-21T10:22:55.691Z,58.60
2019-03-21T10:25:26.456Z,57.70
2019-03-21T10:27:54.244Z,56.80
2019-03-21T10:30:37.443Z,56.10
2019-03-21T10:35:34.912Z,56.90
2019-03-21T10:38:03.408Z,55.50
2019-03-21T10:40:32.076Z,54.20
2019-03-21T10:43:00.480Z,56.90
2019-03-21T10:45:28.872Z,55.50
2019-03-21T10:47:57.283Z,57.40
2019-03-21T10:50:31.304Z,55.10
2019-03-21T10:53:00.083Z,55.80
2019-03-21T10:55:28.542Z,56.00
2019-03-21T10:57:57.024Z,59.00
2019-03-21T11:00:25.506Z,59.10
2019-03-21T11:02:53.938Z,60.00
2019-03-21T11:07:51.887Z,61.20
2019-03-21T11:10:20.288Z,62.80
2019-03-21T11:15:16.778Z,60.10
2019-03-21T11:17:45.246Z,60.90
2019-03-21T11:20:34.528Z,62.40
2019-03-21T11:23:03.204Z,63.10
2019-03-21T11:25:31.686Z,62.70
2019-03-21T11:28:00.149Z,62.60
2019-03-21T11:30:37.772Z,62.50
2019-03-21T11:33:06.324Z,63.50
2019-03-21T11:35:35.202Z,60.40
2019-03-21T11:38:04.740Z,59.90
2019-03-21T11:40:33.155Z,60.50
2019-03-21T11:43:02.621Z,61.20
2019-03-21T11:48:00.007Z,60.60
2019-03-21T11:50:28.686Z,61.70
2019-03-21T11:52:57.081Z,60.50
2019-03-21T11:55:25.515Z,62.50
2019-03-21T11:57:55.574Z,62.70
2019-03-21T12:00:23.977Z,61.60
2019-03-21T12:02:52.391Z,63.00
2019-03-21T12:05:20.788Z,63.40
2019-03-21T12:07:49.196Z,63.00
2019-03-21T12:10:18.242Z,63.80
2019-03-21T12:12:46.653Z,62.90
2019-03-21T12:17:43.622Z,63.80
2019-03-21T12:22:41.293Z,64.00
2019-03-21T12:25:10.333Z,62.00
2019-03-21T12:27:38.736Z,63.80
2019-03-21T12:30:10.340Z,64.20
2019-03-21T12:32:38.756Z,63.10
2019-03-21T12:40:08.383Z,63.80
2019-03-21T12:45:09.762Z,61.80
2019-03-21T12:50:08.543Z,62.70
2019-03-21T12:52:41.385Z,61.40
2019-03-21T12:55:07.624Z,61.90
2019-03-21T12:57:36.012Z,60.80
2019-03-21T13:00:06.828Z,61.30
2019-03-21T13:02:35.237Z,63.00
2019-03-21T13:05:08.069Z,62.30
2019-03-21T13:07:36.622Z,60.20
2019-03-21T13:10:08.102Z,61.10
2019-03-21T13:12:36.512Z,60.80
2019-03-21T13:15:06.265Z,60.60
2019-03-21T13:17:34.745Z,60.10
2019-03-21T13:22:32.286Z,60.10
2019-03-21T13:27:28.849Z,60.90
2019-03-21T13:29:57.256Z,61.00
2019-03-21T13:32:25.652Z,59.30
2019-03-21T13:34:54.079Z,61.30
2019-03-21T13:37:22.478Z,59.90
2019-03-21T13:39:50.894Z,60.30
2019-03-21T13:44:47.445Z,61.30
2019-03-21T13:47:15.857Z,61.80
2019-03-21T13:49:44.267Z,61.00
2019-03-21T13:52:12.661Z,61.40
2019-03-21T13:54:41.549Z,61.70
2019-03-21T13:59:38.301Z,61.80
2019-03-21T14:02:06.705Z,62.40
2019-03-21T14:04:35.151Z,62.50
2019-03-21T14:07:03.620Z,61.40
2019-03-21T14:09:32.033Z,61.80
2019-03-21T14:14:28.511Z,59.40
2019-03-21T14:16:56.908Z,60.40
2019-03-21T14:21:53.387Z,61.20
2019-03-21T14:24:21.794Z,61.40
2019-03-21T14:26:50.190Z,61.90
2019-03-21T14:29:18.618Z,63.10
2019-03-21T14:31:47.016Z,62.10
2019-03-21T14:34:15.428Z,62.90
2019-03-21T14:36:43.829Z,62.70
2019-03-21T14:39:12.228Z,60.30
2019-03-21T14:41:40.626Z,60.40
2019-03-21T14:44:09.038Z,61.10
2019-03-21T14:46:37.442Z,61.00
2019-03-21T14:49:05.871Z,62.00
2019-03-21T14:51:34.273Z,61.30
2019-03-21T14:54:02.669Z,61.40
2019-03-21T14:56:31.090Z,61.70
2019-03-21T14:58:59.568Z,60.60
2019-03-21T15:01:27.977Z,61.20
2019-03-21T15:03:56.387Z,62.60
2019-03-21T15:11:20.962Z,60.40
2019-03-21T15:13:49.358Z,61.00
2019-03-21T15:16:17.765Z,60.30
2019-03-21T15:21:14.258Z,60.90
2019-03-21T15:23:42.663Z,59.90
2019-03-21T15:26:11.076Z,60.10
2019-03-21T15:31:07.565Z,61.10
2019-03-21T15:33:35.961Z,62.40
2019-03-21T15:36:04.385Z,62.30
2019-03-21T15:43:28.948Z,61.10
2019-03-21T15:51:03.806Z,60.00
2019-03-21T15:53:23.625Z,60.30
2019-03-21T15:55:52.045Z,60.60
2019-03-21T15:58:20.441Z,61.80
2019-03-21T16:00:48.865Z,61.50
2019-03-21T16:03:17.263Z,62.90
2019-03-21T16:08:13.742Z,61.70
2019-03-21T16:10:42.152Z,62.70
2019-03-21T16:13:10.557Z,63.30
2019-03-21T16:15:38.997Z,63.20
2019-03-21T16:18:07.381Z,62.90
2019-03-21T16:20:35.792Z,63.40
2019-03-21T16:23:04.463Z,64.60
2019-03-21T16:25:32.882Z,63.80
2019-03-21T16:28:01.338Z,62.90
2019-03-21T16:30:29.742Z,62.80
2019-03-21T16:32:58.147Z,62.40
2019-03-21T16:35:26.552Z,62.40
2019-03-21T16:37:54.963Z,62.50
2019-03-21T16:40:23.393Z,62.10
2019-03-21T16:45:21.232Z,62.40
2019-03-21T16:47:49.976Z,63.10
2019-03-21T16:50:18.427Z,63.20
2019-03-21T16:52:46.842Z,63.50
2019-03-21T16:55:15.325Z,62.70
2019-03-21T16:57:43.747Z,63.50
2019-03-21T17:02:47.568Z,64.40
2019-03-21T17:05:15.965Z,64.90
2019-03-21T17:10:15.192Z,65.70
2019-03-21T17:12:43.592Z,66.00
2019-03-21T17:15:12.928Z,65.50
2019-03-21T17:17:42.198Z,65.70
2019-03-21T17:20:12.350Z,65.80
2019-03-21T17:22:40.787Z,65.80
2019-03-21T17:25:10.093Z,65.70
2019-03-21T17:27:38.500Z,65.70
2019-03-21T17:30:12.872Z,65.90
2019-03-21T17:32:41.292Z,66.00
2019-03-21T17:35:10.223Z,65.70
2019-03-21T17:37:38.639Z,65.90
2019-03-21T17:42:35.786Z,66.00
2019-03-21T17:45:07.296Z,66.20
2019-03-21T17:50:05.737Z,66.30
2019-03-21T17:52:34.144Z,66.60
2019-03-21T17:57:34.668Z,66.70
2019-03-21T18:02:28.925Z,66.90
2019-03-21T18:07:25.416Z,67.50
2019-03-21T18:09:53.828Z,67.60
2019-03-21T18:12:22.217Z,67.70
2019-03-21T18:14:50.635Z,68.00
2019-03-21T18:17:38.380Z,68.00
2019-03-21T18:20:07.127Z,67.70
2019-03-21T18:22:35.524Z,67.80
2019-03-21T18:25:05.380Z,67.70
2019-03-21T18:27:33.770Z,67.80
2019-03-21T18:32:30.246Z,68.10
2019-03-21T18:34:59.113Z,68.30
2019-03-21T18:37:27.567Z,68.40
2019-03-21T18:39:55.978Z,68.50
2019-03-21T18:42:24.393Z,68.40
2019-03-21T18:44:52.794Z,68.40
2019-03-21T18:47:22.669Z,68.40
2019-03-21T18:49:51.073Z,68.70
2019-03-21T18:54:47.576Z,67.70
2019-03-21T18:57:15.973Z,67.60
2019-03-21T18:59:44.382Z,67.80
2019-03-21T19:02:12.792Z,68.30
2019-03-21T19:04:41.221Z,68.40
2019-03-21T19:07:09.612Z,68.50
2019-03-21T19:09:38.701Z,68.60
2019-03-21T19:14:35.195Z,69.10
2019-03-21T19:17:03.600Z,69.40
2019-03-21T19:19:32.009Z,69.40
2019-03-21T19:22:02.051Z,69.40
2019-03-21T19:24:30.449Z,69.50
2019-03-21T19:26:58.851Z,69.40
2019-03-21T19:29:27.262Z,69.50
2019-03-21T19:31:55.664Z,69.60
2019-03-21T19:34:24.076Z,69.90
2019-03-21T19:36:52.479Z,69.90
2019-03-21T19:39:20.888Z,70.20
2019-03-21T19:41:49.280Z,70.50
2019-03-21T19:46:45.764Z,70.40
2019-03-21T19:49:14.218Z,70.60
2019-03-21T19:56:38.855Z,71.00
2019-03-21T19:59:07.273Z,71.10
2019-03-21T20:04:03.759Z,71.30
2019-03-21T20:06:32.163Z,71.40
2019-03-21T20:09:00.573Z,71.50
2019-03-21T20:13:57.064Z,71.70
2019-03-21T20:16:25.454Z,71.80
2019-03-21T20:18:53.935Z,71.90
2019-03-21T20:21:22.336Z,72.00
2019-03-21T20:23:50.737Z,72.10
2019-03-21T20:26:19.142Z,72.30
2019-03-21T20:31:16.725Z,72.40
2019-03-21T20:33:45.128Z,72.30
2019-03-21T20:36:13.520Z,72.40
2019-03-21T20:38:42.020Z,72.50
2019-03-21T20:41:10.437Z,72.50
2019-03-21T20:43:38.842Z,72.60
2019-03-21T20:48:34.255Z,72.70
2019-03-21T20:51:02.671Z,72.90
2019-03-21T20:53:31.060Z,73.00
2019-03-21T20:58:27.608Z,73.20
2019-03-21T21:00:56.014Z,73.20
2019-03-21T21:03:24.420Z,73.40
2019-03-21T21:10:48.976Z,73.50
2019-03-21T21:13:17.373Z,73.80
2019-03-21T21:15:45.792Z,73.90
2019-03-21T21:18:14.193Z,73.90
2019-03-21T21:20:42.687Z,74.00
2019-03-21T21:23:11.252Z,74.00
2019-03-21T21:25:39.756Z,74.10
2019-03-21T21:28:08.160Z,74.40
2019-03-21T21:35:32.728Z,74.20
2019-03-21T21:38:01.139Z,74.20
2019-03-21T21:40:32.680Z,74.60
2019-03-21T21:47:57.400Z,74.90
2019-03-21T21:50:25.817Z,74.90
2019-03-21T21:52:54.213Z,74.80
2019-03-21T22:00:20.927Z,74.90
2019-03-21T22:02:49.354Z,74.90
2019-03-21T22:05:17.834Z,75.10
2019-03-21T22:07:46.235Z,75.40
2019-03-21T22:10:14.775Z,75.40
2019-03-21T22:12:43.245Z,75.50
2019-03-21T22:15:13.829Z,75.60
2019-03-21T22:17:42.308Z,75.70
2019-03-21T22:20:15.720Z,75.70
2019-03-21T22:22:44.563Z,75.60
2019-03-21T22:25:14.128Z,75.70
2019-03-21T22:30:18.591Z,75.70
2019-03-21T22:32:47.023Z,75.80
2019-03-21T22:35:15.428Z,75.90
2019-03-21T22:37:43.833Z,75.80
2019-03-21T22:42:41.292Z,75.90
2019-03-21T22:45:12.736Z,76.00
2019-03-21T22:50:17.445Z,76.30
2019-03-21T22:52:46.296Z,76.30
2019-03-21T22:55:15.071Z,76.50
2019-03-21T22:57:43.559Z,76.50
2019-03-21T23:00:21.793Z,76.50
2019-03-21T23:05:19.415Z,76.80
2019-03-21T23:10:15.976Z,77.00
2019-03-21T23:12:44.396Z,77.20
2019-03-21T23:15:14.123Z,77.10
2019-03-21T23:17:42.530Z,76.90
2019-03-21T23:20:17.206Z,76.90
2019-03-21T23:22:45.613Z,77.00
2019-03-21T23:30:17.053Z,77.10
2019-03-21T23:40:15.246Z,77.30
2019-03-21T23:42:43.954Z,77.30
2019-03-21T23:45:13.879Z,77.20
2019-03-21T23:47:42.559Z,77.30
2019-03-21T23:50:14.957Z,77.20
2019-03-21T23:52:43.834Z,77.20
2019-03-21T23:55:14.365Z,77.30
2019-03-21T23:57:42.773Z,77.70
